GAIDL EGHF-EGKH
Flight info
| Callsign | GAIDL |
|---|---|
| Flight time | 0h 49m |
| Altitude | 3000 |
| Route | SPINIKER TOWER / SFD |
| Aircraft | DH89/L-Y/C |
Departure
| Time | 2026-05-04 12:08 |
|---|---|
| Airport | Solent Airport (EGHF) |
Arrival
| Time | 2026-05-04 12:58 |
|---|---|
| Airport | Headcorn Aerodrome (EGKH) |
| Time | Latitude | Longitude | Altitude | Speed | Heading |
|---|---|---|---|---|---|
| 2026-05-04 12:03 | 50.81001 | -1.20527 | 38 ft | 0 kts | 2° |
| 2026-05-04 12:06 | 50.81002 | -1.20527 | 38 ft | 0 kts | 2° |
| 2026-05-04 12:06 | 50.81036 | -1.20483 | 38 ft | 14 kts | 49° |
| 2026-05-04 12:07 | 50.81070 | -1.20535 | 38 ft | 14 kts | 272° |
| 2026-05-04 12:07 | 50.81080 | -1.20753 | 38 ft | 23 kts | 277° |
| 2026-05-04 12:07 | 50.81089 | -1.21014 | 38 ft | 24 kts | 276° |
| 2026-05-04 12:07 | 50.81099 | -1.21227 | 38 ft | 16 kts | 273° |
| 2026-05-04 12:08 | 50.81123 | -1.21352 | 38 ft | 12 kts | 356° |
| 2026-05-04 12:08 | 50.81285 | -1.21122 | 42 ft | 66 kts | 50° |
| 2026-05-04 12:08 | 50.81618 | -1.20463 | 397 ft | 79 kts | 51° |
| 2026-05-04 12:08 | 50.81944 | -1.19734 | 855 ft | 81 kts | 66° |
| 2026-05-04 12:09 | 50.81913 | -1.18899 | 1234 ft | 81 kts | 119° |
| 2026-05-04 12:09 | 50.81581 | -1.18139 | 1549 ft | 85 kts | 121° |
| 2026-05-04 12:09 | 50.81237 | -1.17390 | 1923 ft | 84 kts | 123° |
| 2026-05-04 12:09 | 50.80892 | -1.16645 | 2238 ft | 84 kts | 122° |
| 2026-05-04 12:10 | 50.80545 | -1.15865 | 2457 ft | 91 kts | 121° |
| 2026-05-04 12:10 | 50.80183 | -1.15012 | 2688 ft | 93 kts | 120° |
| 2026-05-04 12:10 | 50.79856 | -1.14136 | 2868 ft | 96 kts | 115° |
| 2026-05-04 12:10 | 50.79564 | -1.13157 | 2972 ft | 102 kts | 111° |
| 2026-05-04 12:11 | 50.79324 | -1.12110 | 3065 ft | 98 kts | 105° |
| 2026-05-04 12:11 | 50.79151 | -1.11031 | 3037 ft | 105 kts | 99° |
| 2026-05-04 12:11 | 50.79030 | -1.09876 | 3027 ft | 107 kts | 96° |
| 2026-05-04 12:11 | 50.78937 | -1.08724 | 3062 ft | 105 kts | 95° |
| 2026-05-04 12:12 | 50.78852 | -1.07570 | 3053 ft | 107 kts | 95° |
| 2026-05-04 12:12 | 50.78769 | -1.06382 | 3010 ft | 109 kts | 94° |
| 2026-05-04 12:12 | 50.78689 | -1.05189 | 2965 ft | 110 kts | 94° |
| 2026-05-04 12:12 | 50.78611 | -1.04005 | 2932 ft | 109 kts | 94° |
| 2026-05-04 12:13 | 50.78535 | -1.02834 | 2959 ft | 105 kts | 94° |
| 2026-05-04 12:14 | 50.77863 | -0.95165 | 2908 ft | 97 kts | 96° |
| 2026-05-04 12:15 | 50.77761 | -0.94122 | 2979 ft | 95 kts | 97° |
| 2026-05-04 12:15 | 50.77655 | -0.93093 | 3039 ft | 98 kts | 98° |
| 2026-05-04 12:15 | 50.77532 | -0.92041 | 3126 ft | 99 kts | 98° |
| 2026-05-04 12:15 | 50.77425 | -0.90962 | 3196 ft | 100 kts | 96° |
| 2026-05-04 12:16 | 50.77339 | -0.89878 | 3273 ft | 100 kts | 95° |
| 2026-05-04 12:16 | 50.77265 | -0.88768 | 3223 ft | 106 kts | 94° |
| 2026-05-04 12:16 | 50.77195 | -0.87602 | 3119 ft | 109 kts | 94° |
| 2026-05-04 12:16 | 50.77125 | -0.86417 | 3073 ft | 107 kts | 94° |
| 2026-05-04 12:17 | 50.77047 | -0.85260 | 3050 ft | 105 kts | 95° |
| 2026-05-04 12:17 | 50.76962 | -0.84113 | 3009 ft | 104 kts | 95° |
| 2026-05-04 12:17 | 50.76877 | -0.82984 | 2970 ft | 103 kts | 95° |
| 2026-05-04 12:17 | 50.76784 | -0.81856 | 2912 ft | 104 kts | 96° |
| 2026-05-04 12:18 | 50.76676 | -0.80740 | 2890 ft | 102 kts | 96° |
| 2026-05-04 12:18 | 50.76583 | -0.79619 | 2863 ft | 103 kts | 95° |
| 2026-05-04 12:18 | 50.76521 | -0.78489 | 2860 ft | 104 kts | 92° |
| 2026-05-04 12:18 | 50.76503 | -0.77344 | 2845 ft | 105 kts | 89° |
| 2026-05-04 12:19 | 50.76510 | -0.76220 | 2859 ft | 103 kts | 87° |
| 2026-05-04 12:19 | 50.76539 | -0.75084 | 2808 ft | 104 kts | 85° |
| 2026-05-04 12:19 | 50.76588 | -0.73942 | 2871 ft | 104 kts | 84° |
| 2026-05-04 12:19 | 50.76658 | -0.72813 | 2932 ft | 104 kts | 83° |
| 2026-05-04 12:20 | 50.76739 | -0.71654 | 2924 ft | 108 kts | 82° |
| 2026-05-04 12:20 | 50.76821 | -0.70463 | 2810 ft | 113 kts | 83° |
| 2026-05-04 12:20 | 50.76894 | -0.69207 | 2614 ft | 115 kts | 84° |
| 2026-05-04 12:20 | 50.76984 | -0.67952 | 2419 ft | 117 kts | 83° |
| 2026-05-04 12:21 | 50.77067 | -0.66665 | 2191 ft | 118 kts | 83° |
| 2026-05-04 12:21 | 50.77166 | -0.65408 | 2087 ft | 114 kts | 82° |
| 2026-05-04 12:21 | 50.77262 | -0.64204 | 2056 ft | 107 kts | 83° |
| 2026-05-04 12:21 | 50.77345 | -0.63067 | 2044 ft | 104 kts | 83° |
| 2026-05-04 12:22 | 50.77418 | -0.61953 | 2050 ft | 101 kts | 84° |
| 2026-05-04 12:22 | 50.77474 | -0.60832 | 2004 ft | 103 kts | 85° |
| 2026-05-04 12:22 | 50.77527 | -0.59696 | 1964 ft | 104 kts | 85° |
| 2026-05-04 12:22 | 50.77582 | -0.58567 | 1935 ft | 103 kts | 85° |
| 2026-05-04 12:23 | 50.77641 | -0.57434 | 1899 ft | 104 kts | 85° |
| 2026-05-04 12:23 | 50.77691 | -0.56300 | 1838 ft | 105 kts | 87° |
| 2026-05-04 12:23 | 50.77715 | -0.55151 | 1808 ft | 104 kts | 89° |
| 2026-05-04 12:23 | 50.77714 | -0.54003 | 1760 ft | 105 kts | 91° |
| 2026-05-04 12:24 | 50.77693 | -0.52852 | 1723 ft | 105 kts | 93° |
| 2026-05-04 12:24 | 50.77659 | -0.51827 | 1725 ft | 102 kts | 93° |
| 2026-05-04 12:24 | 50.77630 | -0.50747 | 1722 ft | 101 kts | 92° |
| 2026-05-04 12:24 | 50.77624 | -0.49661 | 1732 ft | 100 kts | 89° |
| 2026-05-04 12:25 | 50.77664 | -0.48531 | 1692 ft | 103 kts | 86° |
| 2026-05-04 12:25 | 50.77731 | -0.47417 | 1693 ft | 101 kts | 85° |
| 2026-05-04 12:25 | 50.77814 | -0.46317 | 1665 ft | 103 kts | 84° |
| 2026-05-04 12:25 | 50.77892 | -0.45211 | 1687 ft | 100 kts | 84° |
| 2026-05-04 12:26 | 50.77973 | -0.44111 | 1648 ft | 103 kts | 84° |
| 2026-05-04 12:26 | 50.78048 | -0.42989 | 1644 ft | 101 kts | 85° |
| 2026-05-04 12:26 | 50.78104 | -0.41874 | 1631 ft | 102 kts | 87° |
| 2026-05-04 12:26 | 50.78149 | -0.40781 | 1668 ft | 98 kts | 87° |
| 2026-05-04 12:27 | 50.78190 | -0.39712 | 1709 ft | 97 kts | 87° |
| 2026-05-04 12:27 | 50.78231 | -0.38651 | 1728 ft | 97 kts | 86° |
| 2026-05-04 12:27 | 50.78284 | -0.37593 | 1758 ft | 97 kts | 86° |
| 2026-05-04 12:27 | 50.78340 | -0.36550 | 1780 ft | 97 kts | 85° |
| 2026-05-04 12:28 | 50.78406 | -0.35480 | 1792 ft | 98 kts | 84° |
| 2026-05-04 12:28 | 50.78491 | -0.34390 | 1762 ft | 101 kts | 83° |
| 2026-05-04 12:28 | 50.78589 | -0.33301 | 1764 ft | 101 kts | 83° |
| 2026-05-04 12:28 | 50.78674 | -0.32192 | 1749 ft | 101 kts | 84° |
| 2026-05-04 12:29 | 50.78747 | -0.31096 | 1747 ft | 101 kts | 85° |
| 2026-05-04 12:29 | 50.78813 | -0.29996 | 1750 ft | 100 kts | 85° |
| 2026-05-04 12:29 | 50.78882 | -0.28907 | 1772 ft | 98 kts | 84° |
| 2026-05-04 12:29 | 50.78955 | -0.27841 | 1794 ft | 98 kts | 85° |
| 2026-05-04 12:30 | 50.79017 | -0.26781 | 1807 ft | 98 kts | 85° |
| 2026-05-04 12:30 | 50.79072 | -0.25714 | 1830 ft | 97 kts | 85° |
| 2026-05-04 12:30 | 50.79137 | -0.24654 | 1864 ft | 96 kts | 84° |
| 2026-05-04 12:30 | 50.79213 | -0.23601 | 1878 ft | 97 kts | 84° |
| 2026-05-04 12:31 | 50.79284 | -0.22545 | 1906 ft | 97 kts | 84° |
| 2026-05-04 12:31 | 50.79350 | -0.21489 | 1932 ft | 96 kts | 85° |
| 2026-05-04 12:31 | 50.79410 | -0.20432 | 1945 ft | 97 kts | 85° |
| 2026-05-04 12:31 | 50.79463 | -0.19357 | 1952 ft | 98 kts | 86° |
| 2026-05-04 12:32 | 50.79506 | -0.18296 | 1956 ft | 99 kts | 87° |
| 2026-05-04 12:32 | 50.79520 | -0.16141 | 1995 ft | 97 kts | 90° |
| 2026-05-04 12:32 | 50.79513 | -0.15066 | 1993 ft | 99 kts | 91° |
| 2026-05-04 12:33 | 50.79508 | -0.13978 | 1985 ft | 100 kts | 90° |
| 2026-05-04 12:33 | 50.79504 | -0.12881 | 1984 ft | 100 kts | 90° |
| 2026-05-04 12:33 | 50.79475 | -0.11801 | 2012 ft | 97 kts | 94° |
| 2026-05-04 12:33 | 50.79422 | -0.10729 | 2017 ft | 98 kts | 94° |
| 2026-05-04 12:34 | 50.79372 | -0.09650 | 2018 ft | 99 kts | 94° |
| 2026-05-04 12:34 | 50.79327 | -0.08593 | 2041 ft | 98 kts | 93° |
| 2026-05-04 12:34 | 50.79288 | -0.07525 | 2054 ft | 98 kts | 93° |
| 2026-05-04 12:34 | 50.79257 | -0.06452 | 2065 ft | 98 kts | 92° |
| 2026-05-04 12:35 | 50.79233 | -0.05371 | 2067 ft | 99 kts | 92° |
| 2026-05-04 12:35 | 50.79214 | -0.04281 | 2059 ft | 99 kts | 90° |
| 2026-05-04 12:35 | 50.79244 | -0.03169 | 2007 ft | 103 kts | 85° |
| 2026-05-04 12:35 | 50.79308 | -0.02035 | 1951 ft | 105 kts | 85° |
| 2026-05-04 12:36 | 50.79362 | -0.00880 | 1905 ft | 105 kts | 86° |
| 2026-05-04 12:36 | 50.79408 | 0.00271 | 1819 ft | 107 kts | 87° |
| 2026-05-04 12:36 | 50.79428 | 0.01442 | 1681 ft | 106 kts | 89° |
| 2026-05-04 12:36 | 50.79407 | 0.02602 | 1528 ft | 104 kts | 93° |
| 2026-05-04 12:37 | 50.79349 | 0.03726 | 1379 ft | 102 kts | 95° |
| 2026-05-04 12:37 | 50.79321 | 0.04838 | 1260 ft | 100 kts | 91° |
| 2026-05-04 12:37 | 50.79376 | 0.05928 | 1141 ft | 100 kts | 84° |
| 2026-05-04 12:37 | 50.79488 | 0.06985 | 1097 ft | 95 kts | 82° |
| 2026-05-04 12:38 | 50.79630 | 0.08000 | 1065 ft | 97 kts | 77° |
| 2026-05-04 12:38 | 50.79842 | 0.09012 | 1105 ft | 96 kts | 71° |
| 2026-05-04 12:38 | 50.80070 | 0.10015 | 1131 ft | 97 kts | 73° |
| 2026-05-04 12:38 | 50.80317 | 0.11017 | 1176 ft | 96 kts | 68° |
| 2026-05-04 12:39 | 50.80627 | 0.11942 | 1227 ft | 97 kts | 63° |
| 2026-05-04 12:39 | 50.81015 | 0.12836 | 1242 ft | 99 kts | 54° |
| 2026-05-04 12:39 | 50.81450 | 0.13670 | 1295 ft | 97 kts | 52° |
| 2026-05-04 12:39 | 50.81882 | 0.14481 | 1333 ft | 97 kts | 52° |
| 2026-05-04 12:40 | 50.82323 | 0.15268 | 1380 ft | 94 kts | 50° |
| 2026-05-04 12:40 | 50.82763 | 0.16024 | 1424 ft | 93 kts | 49° |
| 2026-05-04 12:40 | 50.83216 | 0.16790 | 1383 ft | 99 kts | 49° |
| 2026-05-04 12:40 | 50.83687 | 0.17585 | 1361 ft | 102 kts | 48° |
| 2026-05-04 12:41 | 50.84178 | 0.18400 | 1377 ft | 100 kts | 49° |
| 2026-05-04 12:41 | 50.84646 | 0.19211 | 1374 ft | 102 kts | 51° |
| 2026-05-04 12:41 | 50.85081 | 0.20072 | 1416 ft | 99 kts | 54° |
| 2026-05-04 12:41 | 50.85505 | 0.20933 | 1431 ft | 99 kts | 54° |
| 2026-05-04 12:42 | 50.85928 | 0.21797 | 1454 ft | 99 kts | 54° |
| 2026-05-04 12:42 | 50.86363 | 0.22629 | 1483 ft | 99 kts | 50° |
| 2026-05-04 12:42 | 50.86846 | 0.23411 | 1493 ft | 100 kts | 46° |
| 2026-05-04 12:42 | 50.87361 | 0.24151 | 1525 ft | 98 kts | 43° |
| 2026-05-04 12:43 | 50.87878 | 0.24897 | 1457 ft | 106 kts | 45° |
| 2026-05-04 12:43 | 50.88412 | 0.25696 | 1432 ft | 105 kts | 45° |
| 2026-05-04 12:43 | 50.88945 | 0.26510 | 1366 ft | 108 kts | 48° |
| 2026-05-04 12:43 | 50.89439 | 0.27394 | 1336 ft | 107 kts | 50° |
| 2026-05-04 12:44 | 50.89918 | 0.28273 | 1321 ft | 105 kts | 51° |
| 2026-05-04 12:44 | 50.90392 | 0.29142 | 1306 ft | 105 kts | 50° |
| 2026-05-04 12:44 | 50.90881 | 0.30015 | 1266 ft | 107 kts | 50° |
| 2026-05-04 12:44 | 50.91362 | 0.30870 | 1267 ft | 105 kts | 50° |
| 2026-05-04 12:45 | 50.91842 | 0.31733 | 1265 ft | 103 kts | 51° |
| 2026-05-04 12:45 | 50.92304 | 0.32574 | 1274 ft | 101 kts | 50° |
| 2026-05-04 12:45 | 50.92774 | 0.33392 | 1315 ft | 98 kts | 49° |
| 2026-05-04 12:45 | 50.93248 | 0.34182 | 1314 ft | 101 kts | 48° |
| 2026-05-04 12:46 | 50.93733 | 0.34976 | 1334 ft | 101 kts | 47° |
| 2026-05-04 12:46 | 50.94230 | 0.35778 | 1330 ft | 101 kts | 46° |
| 2026-05-04 12:46 | 50.94750 | 0.36541 | 1323 ft | 104 kts | 43° |
| 2026-05-04 12:46 | 50.95293 | 0.37276 | 1325 ft | 105 kts | 41° |
| 2026-05-04 12:47 | 50.95884 | 0.37950 | 1325 ft | 105 kts | 34° |
| 2026-05-04 12:47 | 50.96521 | 0.38520 | 1317 ft | 105 kts | 30° |
| 2026-05-04 12:47 | 50.97170 | 0.39063 | 1310 ft | 103 kts | 30° |
| 2026-05-04 12:47 | 50.97799 | 0.39580 | 1307 ft | 102 kts | 29° |
| 2026-05-04 12:48 | 50.98438 | 0.40094 | 1274 ft | 103 kts | 28° |
| 2026-05-04 12:48 | 50.99086 | 0.40595 | 1231 ft | 104 kts | 27° |
| 2026-05-04 12:48 | 50.99745 | 0.41074 | 1199 ft | 104 kts | 26° |
| 2026-05-04 12:48 | 51.00405 | 0.41532 | 1180 ft | 103 kts | 25° |
| 2026-05-04 12:49 | 51.01054 | 0.41967 | 1206 ft | 100 kts | 25° |
| 2026-05-04 12:49 | 51.01686 | 0.42412 | 1232 ft | 98 kts | 26° |
| 2026-05-04 12:49 | 51.02302 | 0.42848 | 1243 ft | 98 kts | 26° |
| 2026-05-04 12:49 | 51.02926 | 0.43310 | 1245 ft | 99 kts | 28° |
| 2026-05-04 12:50 | 51.03527 | 0.43758 | 1263 ft | 98 kts | 27° |
| 2026-05-04 12:50 | 51.04164 | 0.44216 | 1209 ft | 104 kts | 27° |
| 2026-05-04 12:50 | 51.04798 | 0.44757 | 1192 ft | 102 kts | 33° |
| 2026-05-04 12:50 | 51.05405 | 0.45348 | 1169 ft | 102 kts | 34° |
| 2026-05-04 12:51 | 51.06012 | 0.45960 | 1117 ft | 104 kts | 36° |
| 2026-05-04 12:51 | 51.06539 | 0.46693 | 1116 ft | 101 kts | 48° |
| 2026-05-04 12:51 | 51.07007 | 0.47517 | 1117 ft | 100 kts | 49° |
| 2026-05-04 12:51 | 51.07456 | 0.48347 | 1172 ft | 98 kts | 53° |
| 2026-05-04 12:52 | 51.07871 | 0.49211 | 1185 ft | 99 kts | 54° |
| 2026-05-04 12:52 | 51.08296 | 0.50072 | 1171 ft | 99 kts | 53° |
| 2026-05-04 12:52 | 51.08736 | 0.50946 | 1102 ft | 104 kts | 52° |
| 2026-05-04 12:52 | 51.09177 | 0.51841 | 1112 ft | 102 kts | 54° |
| 2026-05-04 12:53 | 51.09616 | 0.52743 | 1066 ft | 104 kts | 53° |
| 2026-05-04 12:53 | 51.10071 | 0.53635 | 1061 ft | 103 kts | 51° |
| 2026-05-04 12:53 | 51.10524 | 0.54508 | 1038 ft | 102 kts | 51° |
| 2026-05-04 12:53 | 51.10978 | 0.55359 | 1009 ft | 102 kts | 50° |
| 2026-05-04 12:54 | 51.11448 | 0.56199 | 1023 ft | 101 kts | 49° |
| 2026-05-04 12:54 | 51.11919 | 0.57019 | 1029 ft | 101 kts | 49° |
| 2026-05-04 12:54 | 51.12384 | 0.57839 | 1045 ft | 99 kts | 50° |
| 2026-05-04 12:54 | 51.12819 | 0.58713 | 1020 ft | 102 kts | 56° |
| 2026-05-04 12:55 | 51.13160 | 0.59681 | 1029 ft | 100 kts | 66° |
| 2026-05-04 12:55 | 51.13440 | 0.60688 | 1017 ft | 100 kts | 66° |
| 2026-05-04 12:55 | 51.13712 | 0.61716 | 1001 ft | 103 kts | 66° |
| 2026-05-04 12:55 | 51.13958 | 0.62796 | 956 ft | 102 kts | 76° |
| 2026-05-04 12:56 | 51.13966 | 0.63870 | 877 ft | 96 kts | 103° |
| 2026-05-04 12:56 | 51.13804 | 0.64901 | 774 ft | 95 kts | 103° |
| 2026-05-04 12:56 | 51.13659 | 0.65888 | 736 ft | 89 kts | 90° |
| 2026-05-04 12:56 | 51.13805 | 0.66762 | 687 ft | 82 kts | 37° |
| 2026-05-04 12:57 | 51.14295 | 0.67135 | 609 ft | 80 kts | 6° |
| 2026-05-04 12:57 | 51.14837 | 0.67163 | 564 ft | 75 kts | 336° |
| 2026-05-04 12:57 | 51.15235 | 0.66644 | 467 ft | 76 kts | 293° |
| 2026-05-04 12:57 | 51.15388 | 0.65907 | 324 ft | 66 kts | 274° |
| 2026-05-04 12:58 | 51.15494 | 0.65224 | 152 ft | 62 kts | 285° |
| 2026-05-04 12:58 | 51.15611 | 0.64593 | 78 ft | 52 kts | 280° |
| 2026-05-04 12:58 | 51.15686 | 0.64132 | 78 ft | 35 kts | 283° |
| 2026-05-04 12:58 | 51.15727 | 0.63875 | 78 ft | 13 kts | 265° |
| 2026-05-04 12:59 | 51.15691 | 0.63847 | 78 ft | 5 kts | 138° |
| 2026-05-04 12:59 | 51.15669 | 0.63950 | 78 ft | 18 kts | 103° |
| 2026-05-04 12:59 | 51.15631 | 0.64190 | 78 ft | 26 kts | 105° |
| 2026-05-04 12:59 | 51.15584 | 0.64451 | 78 ft | 22 kts | 108° |
| 2026-05-04 13:00 | 51.15534 | 0.64644 | 78 ft | 15 kts | 147° |
| 2026-05-04 13:00 | 51.15493 | 0.64628 | 78 ft | 0 kts | 283° |